CST,Max TemperatureF,Mean TemperatureF,Min TemperatureF,Max Dew PointF,MeanDew PointF,Min DewpointF,Max Humidity, Mean Humidity, Min Humidity, Max Sea Level PressureIn, Mean Sea Level PressureIn, Min Sea Level PressureIn, Max VisibilityMiles, Mean VisibilityMiles, Min VisibilityMiles, Max Wind SpeedMPH, Mean Wind SpeedMPH, Max Gust SpeedMPH,PrecipitationIn, CloudCover, Events, WindDirDegrees
2012-11-1,35,32,28,34,24,21,93,77,64,30.17,30.13,30.08,10,10,10,23,15,28,0.00,7,,11
2012-11-2,33,30,28,30,27,23,100,88,70,30.19,30.17,30.12,10,8,0,8,5,,0.12,6,Snow,106
2012-11-3,33,32,30,32,31,28,100,95,87,30.25,30.21,30.18,10,7,1,7,2,,0.07,4,Snow,58
2012-11-4,35,30,24,34,30,25,100,94,87,30.24,30.22,30.18,10,9,0,6,2,,0.00,5,Fog,86
2012-11-5,42,36,30,36,34,30,100,92,70,30.24,30.05,29.71,10,7,0,23,6,30,0.10,6,Fog,204
2012-11-6,41,38,35,37,37,36,100,94,87,30.02,29.85,29.69,10,9,2,25,16,33,0.00,8,Snow,327
2012-11-7,44,37,30,37,35,30,100,88,71,30.09,29.98,29.79,10,8,0,24,7,31,0.00,3,Fog,183
2012-11-8,44,37,30,37,33,27,93,85,71,30.21,29.99,29.78,10,10,4,23,17,30,0.00,5,,342
2012-11-9,35,32,28,28,26,25,93,81,70,30.22,30.13,29.97,10,10,10,21,14,26,0.00,8,,67
2012-11-10,33,32,32,34,32,28,100,96,81,29.96,29.69,29.48,10,5,2,21,14,26,0.03,8,Snow,66
2012-11-11,30,22,15,30,20,12,100,90,79,29.80,29.71,29.51,10,9,2,22,17,26,0.00,7,Snow,284
2012-11-12,21,16,12,19,14,10,93,88,79,30.18,30.02,29.81,10,7,2,24,16,26,0.00,6,Snow,284
2012-11-13,26,19,12,23,17,9,93,86,74,30.24,30.21,30.17,10,10,7,9,5,,0.00,1,,193
2012-11-14,35,25,15,36,26,14,100,94,87,30.23,30.12,30.01,10,8,3,15,5,,0.00,1,,180
2012-11-15,35,26,17,34,20,16,93,82,64,30.47,30.33,30.02,10,10,10,16,9,18,0.00,0,,326
2012-11-16,39,29,19,25,19,16,86,65,45,30.46,30.27,30.07,10,10,10,26,14,30,0.00,0,,175
2012-11-17,42,36,30,36,32,25,93,84,65,30.11,30.07,30.03,10,10,7,13,8,,0.00,1,,171
2012-11-18,48,40,32,39,35,30,93,84,71,30.03,29.97,29.90,10,10,7,15,6,,0.00,1,,148
2012-11-19,42,33,24,36,32,23,100,89,70,30.17,30.03,29.88,10,8,2,16,8,,0.00,0,,293
2012-11-20,44,32,21,37,28,19,100,86,61,30.16,30.03,29.88,10,6,0,18,6,20,0.00,2,Fog-Snow,174
2012-11-21,53,42,30,41,33,28,100,83,58,29.88,29.76,29.53,10,10,7,10,6,,0.00,0,,164
2012-11-22,32,22,12,30,22,10,100,92,79,30.24,29.87,29.52,10,4,1,37,19,45,0.00,7,Snow,336
2012-11-23,17,14,12,12,10,7,92,83,73,30.47,30.41,30.25,10,5,1,30,20,36,0.00,2,Snow,343
2012-11-24,26,16,5,25,14,1,93,87,79,30.36,30.00,29.79,10,9,1,22,9,28,0.00,1,Snow,185
2012-11-25,24,12,0,23,13,-2,93,83,73,30.31,30.04,29.89,10,8,1,24,12,34,0.01,1,Snow,329
2012-11-26,24,10,-4,18,5,-8,92,81,73,30.42,30.31,30.15,10,10,4,16,8,,0.00,0,Snow,238
2012-11-27,23,18,12,19,15,9,93,84,79,30.27,30.16,30.09,10,10,2,13,7,,0.00,2,Snow,333
2012-11-28,32,24,15,27,18,10,93,86,79,30.29,30.16,30.04,10,9,5,21,8,23,0.00,6,Snow,216
2012-11-29,19,14,10,14,10,7,86,77,68,30.25,30.20,30.17,10,10,10,15,11,20,0.00,2,,66
2012-11-30,33,26,19,30,24,16,100,90,86,30.22,30.06,29.83,10,7,3,20,11,24,0.00,8,,145